createdAt,value
2017-12-12T00:01:17.208Z,1.80
2017-12-12T00:03:44.682Z,1.40
2017-12-12T00:06:12.889Z,4.80
2017-12-12T00:08:40.389Z,9.67
2017-12-12T00:11:07.837Z,18.20
2017-12-12T00:13:35.313Z,10.70
2017-12-12T00:16:02.892Z,19.50
2017-12-12T00:18:30.353Z,22.90
2017-12-12T00:20:57.825Z,15.50
2017-12-12T00:23:25.381Z,19.77
2017-12-12T00:25:52.789Z,15.90
2017-12-12T00:28:20.336Z,22.33
2017-12-12T00:30:48.563Z,26.63
2017-12-12T00:33:16.239Z,22.00
2017-12-12T00:35:44.440Z,18.17
2017-12-12T00:38:11.913Z,16.17
2017-12-12T00:40:39.378Z,21.87
2017-12-12T00:43:06.825Z,19.97
2017-12-12T00:45:34.337Z,13.13
2017-12-12T00:48:01.796Z,18.27
2017-12-12T00:50:29.321Z,20.00
2017-12-12T00:52:57.564Z,14.20
2017-12-12T00:55:25.072Z,15.13
2017-12-12T00:57:53.355Z,17.03
2017-12-12T01:00:21.633Z,17.50
2017-12-12T01:02:49.864Z,16.33
2017-12-12T01:05:17.344Z,17.50
2017-12-12T01:07:44.918Z,12.77
2017-12-12T01:10:12.354Z,19.17
2017-12-12T01:12:39.912Z,20.00
2017-12-12T01:15:07.382Z,11.97
2017-12-12T01:17:34.902Z,12.23
2017-12-12T01:20:03.190Z,16.90
2017-12-12T01:22:30.668Z,14.40
2017-12-12T01:24:58.332Z,13.07
2017-12-12T01:27:25.801Z,10.60
2017-12-12T01:29:53.332Z,10.97
2017-12-12T01:32:21.572Z,10.27
2017-12-12T01:34:49.088Z,16.47
2017-12-12T01:37:16.567Z,9.60
2017-12-12T01:39:44.039Z,9.90
2017-12-12T01:42:11.631Z,7.67
2017-12-12T01:44:39.180Z,10.17
2017-12-12T01:47:06.615Z,9.63
2017-12-12T01:49:34.237Z,12.80
2017-12-12T01:52:01.754Z,11.10
2017-12-12T01:54:29.240Z,8.10
2017-12-12T01:56:56.870Z,11.13
2017-12-12T01:59:24.278Z,13.17
2017-12-12T02:01:51.764Z,8.53
2017-12-12T02:04:20.061Z,12.90
2017-12-12T02:06:48.280Z,11.90
2017-12-12T02:09:15.823Z,9.30
2017-12-12T02:11:44.005Z,9.90
2017-12-12T02:14:12.214Z,8.27
2017-12-12T02:16:39.720Z,16.10
2017-12-12T02:19:07.199Z,9.60
2017-12-12T02:21:34.683Z,9.30
2017-12-12T02:24:02.222Z,13.27
2017-12-12T02:26:29.604Z,11.10
2017-12-12T02:28:57.072Z,11.70
2017-12-12T02:31:24.599Z,12.97
2017-12-12T02:33:52.081Z,12.83
2017-12-12T02:36:19.515Z,11.20
2017-12-12T02:38:47.751Z,8.57
2017-12-12T02:41:15.296Z,12.77
2017-12-12T02:43:42.834Z,9.60
2017-12-12T02:46:10.295Z,13.37
2017-12-12T02:48:37.973Z,10.77
2017-12-12T02:51:05.413Z,14.60
2017-12-12T02:53:33.708Z,13.93
2017-12-12T02:56:01.166Z,8.83
2017-12-12T02:58:29.388Z,10.50
2017-12-12T03:00:56.846Z,11.70
2017-12-12T03:03:24.371Z,14.20
2017-12-12T03:05:52.581Z,11.77
2017-12-12T03:08:20.830Z,11.47
2017-12-12T03:10:49.048Z,9.43
2017-12-12T03:13:16.592Z,14.60
2017-12-12T03:15:44.024Z,8.90
2017-12-12T03:18:12.254Z,12.53
2017-12-12T03:20:39.812Z,10.30
2017-12-12T03:23:07.291Z,9.37
2017-12-12T03:25:34.743Z,8.93
2017-12-12T03:28:02.229Z,10.90
2017-12-12T03:30:29.718Z,9.47
2017-12-12T03:32:57.973Z,7.47
2017-12-12T03:35:25.511Z,8.93
2017-12-12T03:37:52.956Z,9.43
2017-12-12T03:40:21.204Z,7.87
2017-12-12T03:42:49.433Z,10.20
2017-12-12T03:45:16.934Z,8.87
2017-12-12T03:47:44.386Z,9.90
2017-12-12T03:50:11.874Z,7.13
2017-12-12T03:52:40.119Z,11.43
2017-12-12T03:55:07.596Z,8.10
2017-12-12T03:57:35.093Z,10.17
2017-12-12T04:00:03.344Z,7.77
2017-12-12T04:02:30.852Z,8.17
2017-12-12T04:04:58.310Z,7.13
2017-12-12T04:07:25.832Z,10.83
2017-12-12T04:09:53.375Z,6.73
2017-12-12T04:12:20.903Z,7.57
2017-12-12T04:14:48.348Z,7.60
2017-12-12T04:17:15.917Z,12.30
2017-12-12T04:19:43.354Z,12.50
2017-12-12T04:22:10.867Z,10.03
2017-12-12T04:24:38.351Z,17.17
2017-12-12T04:27:05.832Z,8.93
2017-12-12T04:29:33.293Z,9.50
2017-12-12T04:32:00.873Z,8.80
2017-12-12T04:34:29.067Z,7.93
2017-12-12T04:36:56.535Z,12.30
2017-12-12T04:39:24.065Z,9.70
2017-12-12T04:41:51.498Z,10.27
2017-12-12T04:44:18.963Z,10.10
2017-12-12T04:46:46.514Z,8.17
2017-12-12T04:49:14.761Z,7.13
2017-12-12T04:51:42.986Z,6.97
2017-12-12T04:54:10.650Z,11.77
2017-12-12T04:56:38.126Z,6.43
2017-12-12T04:59:05.569Z,8.03
2017-12-12T05:01:33.069Z,9.47
2017-12-12T05:04:00.534Z,7.90
2017-12-12T05:06:28.016Z,12.30
2017-12-12T05:08:55.500Z,7.77
2017-12-12T05:11:22.996Z,9.07
2017-12-12T05:13:50.497Z,8.50
2017-12-12T05:16:18.755Z,9.97
2017-12-12T05:18:46.294Z,8.40
2017-12-12T05:21:13.765Z,8.90
2017-12-12T05:23:41.262Z,6.87
2017-12-12T05:26:09.534Z,9.20
2017-12-12T05:28:37.164Z,17.00
2017-12-12T05:31:04.713Z,10.67
2017-12-12T05:33:32.177Z,9.80
2017-12-12T05:35:59.683Z,7.60
2017-12-12T05:38:27.172Z,9.53
2017-12-12T05:40:55.994Z,8.67
2017-12-12T05:43:23.518Z,8.20
2017-12-12T05:45:50.991Z,11.03
2017-12-12T05:48:19.197Z,21.80
2017-12-12T05:50:46.707Z,8.47
2017-12-12T05:53:14.156Z,15.20
2017-12-12T05:55:41.638Z,7.97
2017-12-12T05:58:09.155Z,9.67
2017-12-12T06:00:36.611Z,19.70
2017-12-12T06:03:04.080Z,13.70
2017-12-12T06:05:31.622Z,8.47
2017-12-12T06:07:59.106Z,10.97
2017-12-12T06:10:26.625Z,8.10
2017-12-12T06:12:54.114Z,24.53
2017-12-12T06:15:21.631Z,11.13
2017-12-12T06:17:49.082Z,16.53
2017-12-12T06:20:16.548Z,16.13
2017-12-12T06:22:44.041Z,16.10
2017-12-12T06:25:11.483Z,18.53
2017-12-12T06:27:38.968Z,34.63
2017-12-12T06:30:06.522Z,16.67
2017-12-12T06:32:34.022Z,22.57
2017-12-12T06:35:01.509Z,18.37
2017-12-12T06:37:28.984Z,15.07
2017-12-12T06:39:56.480Z,30.37
2017-12-12T06:42:23.967Z,16.77
2017-12-12T06:44:51.532Z,14.63
2017-12-12T06:47:18.957Z,23.50
2017-12-12T06:49:46.481Z,16.83
2017-12-12T06:52:13.983Z,17.07
2017-12-12T06:54:41.490Z,14.80
2017-12-12T06:57:09.760Z,21.73
2017-12-12T06:59:37.278Z,15.87
2017-12-12T07:02:04.755Z,17.20
2017-12-12T07:04:32.285Z,17.63
2017-12-12T07:06:59.758Z,26.57
2017-12-12T07:09:27.212Z,17.53
2017-12-12T07:11:54.758Z,26.33
2017-12-12T07:14:22.256Z,27.27
2017-12-12T07:16:49.792Z,22.03
2017-12-12T07:19:17.240Z,19.67
2017-12-12T07:21:44.803Z,20.50
2017-12-12T07:24:12.201Z,32.17
2017-12-12T07:26:39.709Z,20.70
2017-12-12T07:29:08.012Z,21.60
2017-12-12T07:31:35.502Z,18.10
2017-12-12T07:34:02.959Z,22.77
2017-12-12T07:36:30.465Z,20.20
2017-12-12T07:38:57.936Z,22.17
2017-12-12T07:41:26.219Z,14.47
2017-12-12T07:43:54.489Z,13.23
2017-12-12T07:46:22.776Z,18.43
2017-12-12T07:48:51.048Z,19.53
2017-12-12T07:51:18.600Z,24.67
2017-12-12T07:53:46.037Z,18.10
2017-12-12T07:56:13.478Z,18.53
2017-12-12T07:58:40.964Z,22.17
2017-12-12T08:01:08.451Z,17.13
2017-12-12T08:03:35.938Z,15.07
2017-12-12T08:06:04.161Z,15.93
2017-12-12T08:08:32.415Z,20.57
2017-12-12T08:10:59.874Z,22.67
2017-12-12T08:13:28.142Z,25.40
2017-12-12T08:15:56.449Z,19.63
2017-12-12T08:18:23.942Z,21.70
2017-12-12T08:20:51.430Z,24.83
2017-12-12T08:23:18.908Z,24.77
2017-12-12T08:25:46.414Z,23.30
2017-12-12T08:28:13.874Z,18.07
2017-12-12T08:30:41.388Z,22.47
2017-12-12T08:33:08.838Z,18.40
2017-12-12T08:35:36.420Z,14.47
2017-12-12T08:38:04.687Z,22.63
2017-12-12T08:40:32.158Z,17.93
2017-12-12T08:42:59.651Z,18.53
2017-12-12T08:45:27.147Z,27.13
2017-12-12T08:47:54.676Z,26.07
2017-12-12T08:50:22.184Z,17.67
2017-12-12T08:52:49.628Z,26.90
2017-12-12T08:55:17.131Z,24.87
2017-12-12T08:57:44.634Z,24.00
2017-12-12T09:00:12.084Z,24.00
2017-12-12T09:02:39.704Z,33.27
2017-12-12T09:05:08.095Z,28.13
2017-12-12T09:07:35.741Z,28.30
2017-12-12T09:10:03.347Z,20.30
2017-12-12T09:12:35.112Z,29.93
2017-12-12T09:15:02.296Z,24.60
2017-12-12T09:17:29.775Z,34.20
2017-12-12T09:19:57.296Z,23.80
2017-12-12T09:22:24.849Z,25.70
2017-12-12T09:24:52.317Z,27.20
2017-12-12T09:27:20.681Z,22.60
2017-12-12T09:29:48.083Z,34.53
2017-12-12T09:32:15.543Z,24.87
2017-12-12T09:34:43.051Z,24.97
2017-12-12T09:37:10.578Z,34.30
2017-12-12T09:39:38.018Z,30.27
2017-12-12T09:42:06.241Z,18.67
2017-12-12T09:44:33.695Z,32.20
2017-12-12T09:47:01.299Z,27.77
2017-12-12T09:49:28.765Z,22.30
2017-12-12T09:51:56.284Z,23.57
2017-12-12T09:54:23.738Z,34.17
2017-12-12T09:56:51.256Z,21.47
2017-12-12T09:59:18.760Z,26.63
2017-12-12T10:01:46.253Z,25.43
2017-12-12T10:04:14.516Z,25.70
2017-12-12T10:06:41.964Z,22.27
2017-12-12T10:09:09.495Z,27.00
2017-12-12T10:11:37.528Z,22.30
2017-12-12T10:14:05.754Z,24.80
2017-12-12T10:16:34.066Z,20.03
2017-12-12T10:19:01.561Z,22.30
2017-12-12T10:21:29.133Z,22.27
2017-12-12T10:23:56.692Z,20.13
2017-12-12T10:26:24.194Z,17.50
2017-12-12T10:28:51.708Z,18.53
2017-12-12T10:31:19.174Z,17.33
2017-12-12T10:33:46.650Z,23.80
2017-12-12T10:36:14.185Z,24.80
2017-12-12T10:38:41.614Z,24.93
2017-12-12T10:41:09.852Z,46.67
2017-12-12T10:43:37.409Z,65.00
2017-12-12T10:46:04.867Z,58.33
2017-12-12T10:48:32.337Z,29.67
2017-12-12T10:50:59.858Z,30.73
2017-12-12T10:53:27.300Z,23.53
2017-12-12T10:55:54.790Z,21.70
2017-12-12T10:58:22.308Z,35.13
2017-12-12T11:00:49.782Z,44.90
2017-12-12T11:03:17.258Z,34.50
2017-12-12T11:05:44.769Z,41.13
2017-12-12T11:08:12.226Z,48.67
2017-12-12T11:10:39.754Z,36.57
2017-12-12T11:13:07.255Z,45.63
2017-12-12T11:15:34.797Z,38.83
2017-12-12T11:18:02.263Z,35.30
2017-12-12T11:20:29.736Z,35.43
2017-12-12T11:22:57.212Z,31.70
2017-12-12T11:25:24.791Z,25.00
2017-12-12T11:27:52.294Z,31.30
2017-12-12T11:30:19.725Z,24.97
2017-12-12T11:32:47.273Z,26.50
2017-12-12T11:35:14.791Z,24.30
2017-12-12T11:37:42.279Z,26.20
2017-12-12T11:40:09.976Z,27.00
2017-12-12T11:42:37.365Z,28.93
2017-12-12T11:45:05.029Z,26.50
2017-12-12T11:47:33.308Z,37.70
2017-12-12T11:50:00.763Z,41.80
2017-12-12T11:52:28.249Z,49.90
2017-12-12T11:54:55.893Z,46.93
2017-12-12T11:57:23.466Z,40.67
2017-12-12T11:59:51.266Z,32.37
2017-12-12T12:02:18.957Z,33.00
2017-12-12T12:04:46.429Z,25.00
2017-12-12T12:07:13.997Z,30.47
2017-12-12T12:09:41.497Z,23.93
2017-12-12T12:12:09.720Z,31.00
2017-12-12T12:14:37.229Z,28.03
2017-12-12T12:17:04.695Z,31.83
2017-12-12T12:19:32.164Z,29.57
2017-12-12T12:22:00.582Z,28.83
2017-12-12T12:24:27.972Z,28.77
2017-12-12T12:26:56.222Z,29.57
2017-12-12T12:29:24.502Z,28.70
2017-12-12T12:31:51.981Z,36.23
2017-12-12T12:34:19.447Z,61.73
2017-12-12T12:36:46.916Z,40.43
2017-12-12T12:39:14.415Z,42.97
2017-12-12T12:41:42.663Z,33.67
2017-12-12T12:44:10.213Z,39.77
2017-12-12T12:46:37.640Z,39.03
2017-12-12T12:49:05.239Z,27.70
2017-12-12T12:51:33.440Z,29.93
2017-12-12T12:54:00.954Z,31.77
2017-12-12T12:56:29.237Z,26.77
2017-12-12T12:58:56.675Z,27.03
2017-12-12T13:01:24.933Z,19.50
2017-12-12T13:03:52.425Z,24.07
2017-12-12T13:06:20.905Z,22.10
2017-12-12T13:08:49.180Z,25.50
2017-12-12T13:11:16.683Z,20.60
2017-12-12T13:13:44.221Z,22.83
2017-12-12T13:16:11.743Z,21.43
2017-12-12T13:18:39.202Z,21.30
2017-12-12T13:21:06.744Z,24.27
2017-12-12T13:23:34.211Z,46.33
2017-12-12T13:26:01.714Z,22.80
2017-12-12T13:28:30.024Z,16.33
2017-12-12T13:30:58.293Z,23.57
2017-12-12T13:33:25.805Z,20.93
2017-12-12T13:35:53.257Z,16.87
2017-12-12T13:38:20.772Z,19.83
2017-12-12T13:40:49.029Z,36.07
2017-12-12T13:43:16.542Z,65.80
2017-12-12T13:45:44.774Z,77.30
2017-12-12T13:48:12.238Z,36.90
2017-12-12T13:50:39.792Z,26.03
2017-12-12T13:53:07.345Z,28.90
2017-12-12T13:55:35.045Z,29.50
2017-12-12T13:58:02.585Z,32.37
2017-12-12T14:00:30.066Z,26.27
2017-12-12T14:02:57.585Z,26.83
2017-12-12T14:05:25.072Z,30.77
2017-12-12T14:07:52.616Z,27.10
2017-12-12T14:10:20.095Z,19.80
2017-12-12T14:12:47.655Z,17.37
2017-12-12T14:15:15.171Z,21.93
2017-12-12T14:17:42.707Z,19.50
2017-12-12T14:20:10.187Z,21.00
2017-12-12T14:22:38.493Z,18.87
2017-12-12T14:25:05.909Z,25.90
2017-12-12T14:27:33.447Z,17.57
2017-12-12T14:30:00.913Z,26.10
2017-12-12T14:32:28.451Z,21.10
2017-12-12T14:34:55.995Z,27.73
2017-12-12T14:37:23.433Z,53.17
2017-12-12T14:39:51.700Z,33.37
2017-12-12T14:42:19.196Z,17.00
2017-12-12T14:44:47.551Z,25.60
2017-12-12T14:47:15.057Z,22.43
2017-12-12T14:49:42.620Z,21.57
2017-12-12T14:52:10.083Z,21.70
2017-12-12T14:54:37.660Z,19.90
2017-12-12T14:57:05.227Z,27.33
2017-12-12T14:59:32.691Z,22.03
2017-12-12T15:02:00.191Z,18.90
2017-12-12T15:04:27.662Z,24.10
2017-12-12T15:06:55.206Z,33.00
2017-12-12T15:09:22.689Z,27.33
2017-12-12T15:11:50.286Z,26.33
2017-12-12T15:14:17.829Z,30.90
2017-12-12T15:16:45.361Z,20.57
2017-12-12T15:19:12.846Z,21.47
2017-12-12T15:21:40.252Z,20.00
2017-12-12T15:24:07.746Z,17.73
2017-12-12T15:26:35.310Z,17.27
2017-12-12T15:29:02.844Z,16.20
2017-12-12T15:31:30.267Z,21.23
2017-12-12T15:33:57.836Z,21.57
2017-12-12T15:36:25.279Z,26.77
2017-12-12T15:38:52.870Z,28.83
2017-12-12T15:41:21.187Z,24.77
2017-12-12T15:43:48.658Z,22.10
2017-12-12T15:46:16.263Z,24.43
2017-12-12T15:48:43.691Z,21.93
2017-12-12T15:51:11.227Z,21.80
2017-12-12T15:53:39.479Z,19.30
2017-12-12T15:56:06.961Z,23.97
2017-12-12T15:58:35.219Z,20.50
2017-12-12T16:01:02.729Z,29.07
2017-12-12T16:03:30.209Z,40.33
2017-12-12T16:05:57.676Z,41.60
2017-12-12T16:08:25.160Z,30.80
2017-12-12T16:10:52.718Z,29.57
2017-12-12T16:13:20.120Z,23.00
2017-12-12T16:15:47.615Z,19.43
2017-12-12T16:18:15.123Z,27.10
2017-12-12T16:20:42.598Z,24.10
2017-12-12T16:23:10.849Z,22.70
2017-12-12T16:25:38.391Z,27.07
2017-12-12T16:28:05.865Z,23.20
2017-12-12T16:30:33.351Z,20.77
2017-12-12T16:33:00.855Z,20.77
2017-12-12T16:35:28.357Z,21.63
2017-12-12T16:38:05.745Z,20.47
2017-12-12T16:40:33.346Z,20.83
2017-12-12T16:43:00.817Z,21.10
2017-12-12T16:45:29.081Z,23.40
2017-12-12T16:47:56.585Z,29.60
2017-12-12T16:50:24.061Z,21.63
2017-12-12T16:52:51.613Z,19.37
2017-12-12T16:55:19.046Z,18.60
2017-12-12T16:57:47.364Z,16.80
2017-12-12T17:00:15.555Z,14.67
2017-12-12T17:02:43.017Z,12.60
2017-12-12T17:05:10.525Z,12.27
2017-12-12T17:07:38.786Z,13.57
2017-12-12T17:10:06.231Z,16.63
2017-12-12T17:12:33.764Z,9.53
2017-12-12T17:15:01.344Z,18.33
2017-12-12T17:17:28.814Z,19.87
2017-12-12T17:19:56.288Z,19.50
2017-12-12T17:22:23.804Z,19.10
2017-12-12T17:24:51.292Z,18.13
2017-12-12T17:27:18.882Z,15.60
2017-12-12T17:29:46.412Z,13.93
2017-12-12T17:32:13.862Z,20.00
2017-12-12T17:34:41.297Z,22.83
2017-12-12T17:37:09.575Z,20.50
2017-12-12T17:39:37.847Z,16.37
2017-12-12T17:42:05.335Z,19.40
2017-12-12T17:44:32.896Z,23.33
2017-12-12T17:47:01.210Z,26.23
2017-12-12T17:49:28.683Z,24.03
2017-12-12T17:51:56.224Z,22.07
2017-12-12T17:54:23.720Z,18.30
2017-12-12T17:56:51.338Z,19.00
2017-12-12T17:59:19.125Z,19.30
2017-12-12T18:01:46.576Z,23.87
2017-12-12T18:04:14.044Z,27.00
2017-12-12T18:06:41.562Z,25.03
2017-12-12T18:09:09.044Z,21.20
2017-12-12T18:11:36.499Z,20.10
2017-12-12T18:14:03.996Z,23.70
2017-12-12T18:16:31.464Z,25.50
2017-12-12T18:18:58.948Z,22.70
2017-12-12T18:21:26.434Z,23.80
2017-12-12T18:23:53.974Z,27.40
2017-12-12T18:26:21.453Z,19.47
2017-12-12T18:28:48.896Z,21.60
2017-12-12T18:31:16.393Z,21.60
2017-12-12T18:33:43.883Z,21.77
2017-12-12T18:36:11.338Z,23.47
2017-12-12T18:38:39.608Z,20.50
2017-12-12T18:41:07.913Z,20.83
2017-12-12T18:43:36.169Z,17.63
2017-12-12T18:46:04.436Z,19.53
2017-12-12T18:48:31.961Z,21.70
2017-12-12T18:50:59.460Z,17.50
2017-12-12T18:53:26.930Z,20.80
2017-12-12T18:55:54.525Z,17.37
2017-12-12T18:58:22.040Z,19.13
2017-12-12T19:00:49.561Z,15.10
2017-12-12T19:03:17.061Z,18.40
2017-12-12T19:05:44.561Z,19.20
2017-12-12T19:08:12.060Z,17.93
2017-12-12T19:10:39.538Z,18.27
2017-12-12T19:13:07.088Z,18.90
2017-12-12T19:15:34.620Z,17.80
2017-12-12T19:18:02.074Z,16.33
2017-12-12T19:20:30.351Z,17.70
2017-12-12T19:22:57.881Z,15.13
2017-12-12T19:25:25.499Z,17.17
2017-12-12T19:27:53.747Z,21.77
2017-12-12T19:30:21.250Z,16.77
2017-12-12T19:32:49.475Z,16.90
2017-12-12T19:35:16.976Z,20.27
2017-12-12T19:37:44.415Z,23.27
2017-12-12T19:40:11.929Z,19.40
2017-12-12T19:42:39.449Z,12.97
2017-12-12T19:45:06.962Z,19.90
2017-12-12T19:47:34.432Z,17.17
2017-12-12T19:50:01.994Z,19.97
2017-12-12T19:52:29.472Z,15.67
2017-12-12T19:54:56.982Z,16.87
2017-12-12T19:57:25.252Z,21.10
2017-12-12T19:59:52.676Z,16.63
2017-12-12T20:02:20.194Z,17.47
2017-12-12T20:04:48.539Z,22.07
2017-12-12T20:07:16.760Z,19.13
2017-12-12T20:09:44.993Z,19.87
2017-12-12T20:12:12.517Z,25.83
2017-12-12T20:14:40.056Z,18.87
2017-12-12T20:17:08.334Z,24.73
2017-12-12T20:19:35.855Z,16.47
2017-12-12T20:22:03.319Z,20.67
2017-12-12T20:24:30.963Z,26.60
2017-12-12T20:26:58.478Z,22.03
2017-12-12T20:29:25.936Z,21.00
2017-12-12T20:31:53.454Z,20.87
2017-12-12T20:34:21.025Z,24.10
2017-12-12T20:36:48.574Z,24.67
2017-12-12T20:39:16.044Z,19.87
2017-12-12T20:41:43.555Z,26.83
2017-12-12T20:44:11.060Z,20.20
2017-12-12T20:46:38.660Z,21.20
2017-12-12T20:49:06.094Z,21.10
2017-12-12T20:51:33.627Z,23.43
2017-12-12T20:54:01.215Z,21.47
2017-12-12T20:56:28.659Z,26.10
2017-12-12T20:58:56.143Z,21.30
2017-12-12T21:01:24.368Z,25.57
2017-12-12T21:03:51.841Z,24.67
2017-12-12T21:06:19.571Z,23.47
2017-12-12T21:08:48.422Z,25.87
2017-12-12T21:11:15.912Z,27.80
2017-12-12T21:13:43.386Z,35.57
2017-12-12T21:16:10.838Z,20.33
2017-12-12T21:18:38.286Z,30.30
2017-12-12T21:21:05.810Z,29.00
2017-12-12T21:23:33.366Z,29.73
2017-12-12T21:26:00.830Z,23.80
2017-12-12T21:28:28.463Z,27.03
2017-12-12T21:30:56.232Z,26.90
2017-12-12T21:33:23.743Z,23.60
2017-12-12T21:35:52.052Z,17.87
2017-12-12T21:38:22.418Z,26.43
2017-12-12T21:40:49.964Z,26.43
2017-12-12T21:43:17.413Z,22.23
2017-12-12T21:45:44.905Z,25.67
2017-12-12T21:48:12.419Z,27.53
2017-12-12T21:50:40.726Z,29.33
2017-12-12T21:53:08.249Z,24.20
2017-12-12T21:55:35.768Z,27.63
2017-12-12T21:58:03.252Z,27.00
2017-12-12T22:00:30.729Z,27.90
2017-12-12T22:02:58.241Z,33.63
2017-12-12T22:05:25.733Z,21.40
2017-12-12T22:07:53.233Z,29.30
2017-12-12T22:10:20.754Z,24.40
2017-12-12T22:12:48.253Z,24.83
2017-12-12T22:15:15.733Z,25.20
2017-12-12T22:17:44.030Z,25.13
2017-12-12T22:20:11.527Z,27.33
2017-12-12T22:22:39.013Z,26.83
2017-12-12T22:25:06.554Z,33.70
2017-12-12T22:27:34.774Z,26.27
2017-12-12T22:30:02.273Z,29.53
2017-12-12T22:32:29.731Z,20.73
2017-12-12T22:34:57.190Z,23.90
2017-12-12T22:37:25.425Z,24.70
2017-12-12T22:39:52.925Z,22.43
2017-12-12T22:42:21.178Z,18.90
2017-12-12T22:44:49.051Z,24.17
2017-12-12T22:47:16.596Z,26.00
2017-12-12T22:49:44.049Z,23.27
2017-12-12T22:52:11.514Z,22.80
2017-12-12T22:54:38.988Z,17.90
2017-12-12T22:57:07.255Z,21.77
2017-12-12T22:59:34.746Z,23.70
2017-12-12T23:02:02.611Z,23.03
2017-12-12T23:04:30.071Z,29.97
2017-12-12T23:06:57.569Z,25.17
2017-12-12T23:09:25.095Z,18.80
2017-12-12T23:11:52.725Z,20.07
2017-12-12T23:14:20.241Z,22.77
2017-12-12T23:16:47.696Z,20.43
2017-12-12T23:19:15.205Z,28.63
2017-12-12T23:21:43.046Z,16.37
2017-12-12T23:24:10.463Z,19.43
2017-12-12T23:26:38.661Z,18.43
2017-12-12T23:29:06.148Z,21.90
2017-12-12T23:31:34.420Z,18.30
2017-12-12T23:34:01.928Z,21.30
2017-12-12T23:36:29.480Z,18.10
2017-12-12T23:38:56.941Z,20.60
2017-12-12T23:41:24.502Z,23.47
2017-12-12T23:43:52.714Z,19.37
2017-12-12T23:46:20.403Z,17.20
2017-12-12T23:48:47.888Z,20.80
2017-12-12T23:51:15.408Z,18.73
2017-12-12T23:53:42.873Z,21.70
2017-12-12T23:56:10.339Z,22.07
2017-12-12T23:58:37.827Z,23.60
